createdAt,value
2022-10-07T00:02:24.991Z,78.57
2022-10-07T00:05:18.473Z,78.76
2022-10-07T00:08:14.015Z,78.73
2022-10-07T00:10:47.414Z,79.14
2022-10-07T00:13:17.341Z,79.69
2022-10-07T00:15:50.501Z,79.91
2022-10-07T00:18:22.700Z,80.12
2022-10-07T00:21:15.086Z,79.97
2022-10-07T00:23:50.505Z,79.66
2022-10-07T00:26:28.713Z,79.90
2022-10-07T00:28:57.386Z,80.08
2022-10-07T00:32:01.905Z,80.03
2022-10-07T00:34:37.656Z,79.90
2022-10-07T00:37:05.721Z,79.90
2022-10-07T00:40:24.849Z,79.92
2022-10-07T00:43:35.078Z,79.92
2022-10-07T00:46:54.938Z,79.72
2022-10-07T00:50:09.314Z,79.76
2022-10-07T00:52:48.834Z,80.12
2022-10-07T00:55:21.817Z,80.20
2022-10-07T00:57:57.322Z,80.32
2022-10-07T01:00:35.299Z,80.11
2022-10-07T01:03:03.028Z,80.24
2022-10-07T01:05:38.191Z,80.54
2022-10-07T01:08:34.509Z,80.54
2022-10-07T01:11:28.926Z,80.41
2022-10-07T01:14:29.833Z,80.12
2022-10-07T01:20:29.874Z,80.56
2022-10-07T01:24:15.671Z,80.87
2022-10-07T01:27:21.297Z,80.57
2022-10-07T01:30:09.839Z,80.90
2022-10-07T01:35:42.594Z,80.95
2022-10-07T01:38:38.751Z,81.36
2022-10-07T01:41:34.907Z,80.81
2022-10-07T01:44:05.509Z,81.07
2022-10-07T01:46:59.225Z,81.16
2022-10-07T01:52:56.917Z,81.29
2022-10-07T01:56:02.948Z,81.93
2022-10-07T01:59:01.714Z,81.95
2022-10-07T02:01:58.269Z,81.53
2022-10-07T02:04:33.983Z,81.99
2022-10-07T02:07:20.320Z,82.02
2022-10-07T02:10:13.344Z,82.13
2022-10-07T02:12:48.276Z,82.07
2022-10-07T02:15:28.131Z,81.85
2022-10-07T02:18:00.726Z,81.67
2022-10-07T02:20:32.515Z,81.78
2022-10-07T02:23:02.595Z,82.03
2022-10-07T02:25:37.482Z,82.09
2022-10-07T02:28:07.308Z,81.86
2022-10-07T02:30:36.607Z,81.99
2022-10-07T02:33:07.962Z,81.70
2022-10-07T02:35:42.530Z,81.96
2022-10-07T02:38:14.383Z,81.78
2022-10-07T02:40:51.045Z,81.72
2022-10-07T02:43:31.280Z,81.95
2022-10-07T02:46:08.068Z,82.10
2022-10-07T02:48:46.363Z,82.10
2022-10-07T02:51:21.272Z,82.11
2022-10-07T02:53:53.237Z,81.86
2022-10-07T02:56:25.988Z,81.36
2022-10-07T02:58:55.214Z,81.68
2022-10-07T03:01:28.149Z,82.20
2022-10-07T03:03:57.694Z,82.56
2022-10-07T03:06:26.817Z,82.37
2022-10-07T03:08:55.127Z,82.61
2022-10-07T03:11:24.506Z,82.18
2022-10-07T03:13:52.384Z,82.40
2022-10-07T03:16:20.563Z,82.27
2022-10-07T03:18:48.384Z,82.72
2022-10-07T03:21:35.062Z,82.55
2022-10-07T03:24:04.939Z,82.50
2022-10-07T03:26:36.911Z,83.67
2022-10-07T03:29:05.659Z,84.14
2022-10-07T03:31:33.483Z,84.29
2022-10-07T03:34:01.736Z,84.37
2022-10-07T03:36:29.884Z,84.51
2022-10-07T03:38:58.609Z,84.54
2022-10-07T03:41:27.202Z,84.75
2022-10-07T03:43:58.459Z,84.43
2022-10-07T03:46:26.843Z,84.36
2022-10-07T03:48:54.941Z,84.38
2022-10-07T03:51:23.044Z,83.98
2022-10-07T03:53:54.600Z,83.72
2022-10-07T03:56:23.114Z,83.61
2022-10-07T03:58:52.735Z,83.48
2022-10-07T04:01:20.436Z,83.33
2022-10-07T04:03:51.176Z,83.72
2022-10-07T04:06:19.212Z,83.65
2022-10-07T04:08:52.773Z,83.53
2022-10-07T04:11:21.043Z,83.59
2022-10-07T04:13:51.283Z,83.61
2022-10-07T04:16:20.018Z,83.43
2022-10-07T04:18:48.077Z,83.13
2022-10-07T04:21:16.025Z,83.38
2022-10-07T04:23:43.984Z,83.15
2022-10-07T04:26:13.107Z,83.33
2022-10-07T04:28:44.398Z,82.98
2022-10-07T04:31:14.932Z,83.15
2022-10-07T04:33:46.566Z,83.07
2022-10-07T04:36:18.188Z,82.95
2022-10-07T04:39:01.929Z,83.09
2022-10-07T04:41:33.174Z,83.73
2022-10-07T04:44:01.472Z,83.29
2022-10-07T04:46:32.772Z,83.42
2022-10-07T04:49:05.237Z,83.45
2022-10-07T04:51:33.361Z,83.75
2022-10-07T04:54:01.571Z,83.88
2022-10-07T04:56:41.061Z,84.05
2022-10-07T04:59:10.031Z,83.51
2022-10-07T05:01:39.426Z,83.45
2022-10-07T05:04:08.042Z,83.89
2022-10-07T05:06:35.726Z,83.94
2022-10-07T05:09:03.550Z,83.93
2022-10-07T05:11:34.068Z,84.96
2022-10-07T05:14:07.473Z,85.10
2022-10-07T05:16:36.102Z,84.91
2022-10-07T05:19:04.312Z,85.44
2022-10-07T05:21:33.856Z,85.23
2022-10-07T05:24:02.461Z,84.88
2022-10-07T05:26:34.504Z,84.75
2022-10-07T05:29:03.604Z,84.85
2022-10-07T05:31:37.095Z,84.83
2022-10-07T05:34:05.645Z,84.76
2022-10-07T05:36:35.237Z,84.79
2022-10-07T05:39:03.888Z,84.67
2022-10-07T05:41:45.284Z,84.64
2022-10-07T05:44:14.436Z,84.75
2022-10-07T05:46:42.827Z,84.94
2022-10-07T05:49:11.961Z,85.13
2022-10-07T05:51:40.705Z,85.30
2022-10-07T05:54:08.818Z,85.56
2022-10-07T05:56:39.891Z,85.73
2022-10-07T05:59:09.866Z,85.85
2022-10-07T06:01:38.253Z,85.45
2022-10-07T06:04:11.731Z,85.35
2022-10-07T06:06:42.219Z,85.21
2022-10-07T06:09:32.101Z,85.30
2022-10-07T06:12:21.454Z,85.41
2022-10-07T06:14:49.958Z,85.49
2022-10-07T06:17:18.199Z,85.24
2022-10-07T06:19:46.850Z,85.10
2022-10-07T06:22:15.181Z,85.22
2022-10-07T06:24:45.415Z,85.36
2022-10-07T06:27:13.756Z,85.31
2022-10-07T06:29:42.535Z,85.31
2022-10-07T06:32:11.138Z,85.22
2022-10-07T06:34:40.016Z,85.07
2022-10-07T06:37:07.641Z,84.94
2022-10-07T06:39:35.581Z,84.94
2022-10-07T06:42:03.725Z,84.69
2022-10-07T06:44:39.598Z,84.55
2022-10-07T06:47:11.857Z,84.38
2022-10-07T06:49:40.893Z,84.68
2022-10-07T06:52:08.817Z,84.54
2022-10-07T06:54:37.278Z,84.57
2022-10-07T06:57:20.416Z,84.54
2022-10-07T06:59:55.159Z,84.54
2022-10-07T07:02:25.647Z,84.57
2022-10-07T07:04:57.637Z,84.49
2022-10-07T07:07:26.415Z,84.26
2022-10-07T07:09:54.613Z,84.38
2022-10-07T07:12:25.496Z,84.19
2022-10-07T07:14:54.429Z,83.92
2022-10-07T07:17:22.501Z,83.84
2022-10-07T07:19:50.449Z,83.86
2022-10-07T07:22:18.608Z,84.02
2022-10-07T07:24:46.815Z,83.82
2022-10-07T07:27:15.326Z,83.81
2022-10-07T07:29:44.376Z,83.60
2022-10-07T07:32:12.416Z,83.55
2022-10-07T07:34:42.524Z,83.60
2022-10-07T07:37:12.190Z,83.30
2022-10-07T07:39:44.663Z,83.27
2022-10-07T07:42:14.903Z,83.21
2022-10-07T07:44:42.798Z,83.34
2022-10-07T07:47:12.521Z,82.92
2022-10-07T07:49:41.079Z,82.82
2022-10-07T07:52:11.435Z,82.53
2022-10-07T07:54:47.716Z,82.62
2022-10-07T07:57:15.547Z,82.35
2022-10-07T07:59:43.221Z,82.26
2022-10-07T08:02:12.414Z,82.05
2022-10-07T08:04:42.232Z,81.83
2022-10-07T08:07:13.141Z,81.67
2022-10-07T08:09:41.491Z,81.54
2022-10-07T08:12:09.798Z,81.43
2022-10-07T08:14:40.608Z,81.34
2022-10-07T08:17:09.200Z,81.05
2022-10-07T08:19:38.711Z,80.75
2022-10-07T08:22:07.207Z,80.63
2022-10-07T08:24:35.422Z,80.62
2022-10-07T08:27:03.161Z,80.57
2022-10-07T08:29:31.096Z,80.33
2022-10-07T08:31:59.446Z,80.15
2022-10-07T08:34:27.247Z,79.88
2022-10-07T08:36:56.220Z,79.55
2022-10-07T08:39:24.774Z,79.18
2022-10-07T08:42:13.247Z,79.05
2022-10-07T08:44:44.417Z,78.66
2022-10-07T08:47:32.455Z,78.49
2022-10-07T08:50:16.704Z,78.35
2022-10-07T08:52:53.103Z,78.06
2022-10-07T08:55:33.359Z,77.88
2022-10-07T08:58:31.043Z,77.57
2022-10-07T09:01:29.573Z,77.51
2022-10-07T09:04:26.953Z,77.34
2022-10-07T09:07:05.903Z,76.75
2022-10-07T09:09:46.186Z,76.61
2022-10-07T09:12:23.265Z,76.49
2022-10-07T09:14:55.761Z,76.45
2022-10-07T09:17:45.267Z,75.87
2022-10-07T09:20:17.668Z,75.57
2022-10-07T09:22:57.644Z,75.03
2022-10-07T09:25:28.173Z,74.57
2022-10-07T09:27:56.724Z,74.14
2022-10-07T09:30:28.040Z,73.72
2022-10-07T09:32:57.115Z,73.22
2022-10-07T09:35:27.615Z,72.89
2022-10-07T09:38:04.061Z,72.54
2022-10-07T09:41:05.350Z,72.10
2022-10-07T09:43:35.178Z,71.34
2022-10-07T09:46:03.001Z,70.93
2022-10-07T09:48:34.349Z,70.59
2022-10-07T09:51:16.661Z,69.98
2022-10-07T09:54:18.985Z,69.64
2022-10-07T09:56:47.519Z,69.29
2022-10-07T09:59:28.883Z,68.75
2022-10-07T10:02:21.053Z,68.21
2022-10-07T10:04:54.705Z,67.91
2022-10-07T10:07:28.847Z,67.61
2022-10-07T10:10:12.445Z,67.20
2022-10-07T10:12:49.457Z,66.92
2022-10-07T10:15:35.990Z,66.75
2022-10-07T10:18:26.463Z,66.28
2022-10-07T10:20:54.522Z,66.22
2022-10-07T10:23:37.178Z,66.42
2022-10-07T10:26:33.656Z,65.97
2022-10-07T10:29:30.361Z,65.58
2022-10-07T10:32:01.003Z,65.14
2022-10-07T10:34:52.121Z,64.24
2022-10-07T10:37:43.126Z,63.96
2022-10-07T10:40:36.339Z,63.79
2022-10-07T10:43:22.921Z,63.11
2022-10-07T10:45:56.545Z,62.55
2022-10-07T10:48:55.473Z,62.36
2022-10-07T10:51:35.243Z,61.78
2022-10-07T10:54:15.860Z,61.05
2022-10-07T10:57:09.602Z,60.55
2022-10-07T10:59:49.527Z,59.71
2022-10-07T11:02:44.463Z,59.15
2022-10-07T11:05:35.574Z,58.64
2022-10-07T11:08:25.304Z,58.53
2022-10-07T11:11:02.839Z,58.55
2022-10-07T11:13:54.583Z,58.09
2022-10-07T11:16:31.773Z,57.62
2022-10-07T11:19:04.827Z,57.59
2022-10-07T11:21:50.833Z,57.36
2022-10-07T11:24:41.136Z,57.29
2022-10-07T11:27:24.934Z,56.89
2022-10-07T11:29:58.124Z,56.68
2022-10-07T11:32:38.295Z,56.86
2022-10-07T11:35:21.453Z,56.74
2022-10-07T11:37:58.651Z,56.78
2022-10-07T11:40:31.273Z,56.58
2022-10-07T11:43:09.040Z,56.27
2022-10-07T11:45:44.813Z,56.31
2022-10-07T11:48:17.893Z,56.20
2022-10-07T11:50:55.270Z,55.64
2022-10-07T11:53:28.548Z,55.52
2022-10-07T11:56:07.035Z,55.48
2022-10-07T11:58:39.323Z,55.30
2022-10-07T12:01:25.533Z,55.09
2022-10-07T12:04:13.012Z,54.87
2022-10-07T12:07:19.265Z,54.26
2022-10-07T12:10:21.851Z,53.65
2022-10-07T12:12:58.430Z,53.26
2022-10-07T12:15:35.584Z,52.67
2022-10-07T12:18:05.612Z,52.23
2022-10-07T12:20:33.566Z,51.67
2022-10-07T12:23:17.338Z,51.31
2022-10-07T12:25:49.146Z,51.12
2022-10-07T12:28:35.476Z,50.63
2022-10-07T12:31:27.311Z,50.00
2022-10-07T12:34:09.324Z,49.56
2022-10-07T12:36:43.126Z,49.33
2022-10-07T12:39:11.982Z,49.02
2022-10-07T12:41:40.816Z,48.78
2022-10-07T12:44:24.059Z,48.53
2022-10-07T12:47:07.163Z,48.31
2022-10-07T12:49:41.085Z,48.05
2022-10-07T12:52:23.423Z,47.94
2022-10-07T12:54:55.781Z,47.80
2022-10-07T12:57:32.775Z,47.36
2022-10-07T13:00:03.204Z,47.48
2022-10-07T13:02:52.489Z,47.15
2022-10-07T13:05:50.805Z,46.86
2022-10-07T13:08:40.406Z,46.82
2022-10-07T13:11:49.409Z,46.37
2022-10-07T13:14:28.134Z,46.10
2022-10-07T13:17:04.434Z,45.75
2022-10-07T13:20:11.268Z,45.47
2022-10-07T13:22:45.651Z,45.10
2022-10-07T13:25:15.301Z,45.08
2022-10-07T13:27:50.410Z,44.53
2022-10-07T13:30:41.105Z,44.27
2022-10-07T13:33:31.321Z,44.04
2022-10-07T13:36:30.086Z,44.16
2022-10-07T13:39:12.174Z,43.81
2022-10-07T13:41:44.342Z,43.06
2022-10-07T13:44:20.782Z,42.97
2022-10-07T13:46:57.998Z,42.70
2022-10-07T13:49:30.509Z,42.72
2022-10-07T13:52:03.123Z,42.93
2022-10-07T13:54:36.093Z,42.29
2022-10-07T13:57:12.263Z,41.92
2022-10-07T13:59:41.125Z,41.64
2022-10-07T14:02:12.472Z,41.35
2022-10-07T14:05:00.302Z,41.33
2022-10-07T14:07:29.099Z,41.42
2022-10-07T14:09:59.746Z,41.28
2022-10-07T14:12:49.303Z,41.11
2022-10-07T14:15:24.435Z,40.73
2022-10-07T14:17:58.530Z,40.44
2022-10-07T14:20:32.163Z,40.85
2022-10-07T14:23:02.943Z,40.55
2022-10-07T14:25:32.605Z,40.41
2022-10-07T14:28:17.732Z,40.37
2022-10-07T14:31:25.336Z,40.01
2022-10-07T14:34:29.832Z,40.48
2022-10-07T14:37:03.905Z,39.84
2022-10-07T14:39:35.911Z,39.95
2022-10-07T14:42:05.834Z,39.98
2022-10-07T14:44:34.132Z,39.54
2022-10-07T14:47:25.394Z,39.66
2022-10-07T14:49:55.205Z,40.12
2022-10-07T14:52:29.021Z,40.45
2022-10-07T14:55:03.170Z,40.29
2022-10-07T14:57:31.323Z,40.12
2022-10-07T14:59:59.336Z,39.98
2022-10-07T15:02:27.441Z,40.24
2022-10-07T15:04:55.080Z,40.23
2022-10-07T15:07:22.982Z,40.04
2022-10-07T15:09:50.577Z,40.38
2022-10-07T15:12:18.326Z,40.25
2022-10-07T15:14:46.148Z,40.46
2022-10-07T15:17:14.435Z,40.73
2022-10-07T15:19:42.186Z,40.95
2022-10-07T15:22:10.000Z,41.40
2022-10-07T15:24:37.771Z,41.69
2022-10-07T15:27:07.160Z,42.15
2022-10-07T15:29:34.850Z,42.36
2022-10-07T15:32:03.159Z,42.88
2022-10-07T15:34:31.023Z,43.43
2022-10-07T15:37:00.467Z,43.89
2022-10-07T15:39:28.217Z,44.32
2022-10-07T15:41:56.096Z,44.66
2022-10-07T15:44:23.959Z,45.12
2022-10-07T15:46:54.404Z,45.76
2022-10-07T15:49:22.354Z,46.02
2022-10-07T15:51:50.158Z,46.39
2022-10-07T15:54:17.876Z,46.92
2022-10-07T15:56:45.681Z,47.39
2022-10-07T15:59:13.731Z,47.65
2022-10-07T16:01:41.423Z,47.96
2022-10-07T16:04:12.376Z,48.43
2022-10-07T16:06:40.306Z,48.98
2022-10-07T16:09:08.012Z,49.32
2022-10-07T16:11:35.775Z,49.82
2022-10-07T16:14:03.959Z,50.18
2022-10-07T16:16:32.636Z,50.52
2022-10-07T16:19:01.043Z,50.95
2022-10-07T16:21:30.265Z,51.46
2022-10-07T16:24:12.859Z,51.69
2022-10-07T16:26:41.516Z,52.44
2022-10-07T16:29:33.532Z,52.68
2022-10-07T16:32:02.233Z,53.40
2022-10-07T16:34:30.196Z,53.83
2022-10-07T16:36:58.688Z,54.08
2022-10-07T16:39:26.621Z,54.66
2022-10-07T16:41:56.570Z,54.97
2022-10-07T16:44:24.916Z,55.32
2022-10-07T16:46:56.861Z,55.92
2022-10-07T16:49:26.353Z,56.23
2022-10-07T16:51:54.667Z,56.63
2022-10-07T16:54:22.536Z,57.12
2022-10-07T16:56:52.611Z,57.39
2022-10-07T16:59:24.018Z,57.83
2022-10-07T17:01:56.755Z,58.29
2022-10-07T17:04:25.506Z,58.72
2022-10-07T17:06:54.217Z,59.01
2022-10-07T17:09:24.887Z,59.43
2022-10-07T17:11:53.000Z,59.79
2022-10-07T17:14:21.842Z,60.18
2022-10-07T17:16:54.116Z,60.46
2022-10-07T17:19:28.967Z,60.76
2022-10-07T17:21:58.726Z,61.16
2022-10-07T17:24:26.928Z,61.51
2022-10-07T17:26:55.182Z,61.68
2022-10-07T17:29:27.408Z,62.11
2022-10-07T17:31:56.507Z,62.53
2022-10-07T17:34:24.203Z,62.71
2022-10-07T17:36:52.111Z,63.11
2022-10-07T17:39:20.191Z,63.35
2022-10-07T17:41:48.238Z,63.62
2022-10-07T17:44:16.834Z,63.92
2022-10-07T17:46:45.406Z,64.20
2022-10-07T17:49:16.060Z,64.45
2022-10-07T17:51:44.451Z,64.72
2022-10-07T17:54:14.343Z,64.84
2022-10-07T17:56:44.526Z,65.10
2022-10-07T17:59:12.502Z,65.24
2022-10-07T18:01:41.565Z,65.43
2022-10-07T18:04:13.674Z,65.76
2022-10-07T18:06:43.505Z,65.97
2022-10-07T18:09:15.632Z,66.26
2022-10-07T18:12:01.938Z,66.53
2022-10-07T18:14:53.455Z,66.65
2022-10-07T18:17:22.877Z,66.91
2022-10-07T18:19:50.634Z,67.01
2022-10-07T18:22:19.331Z,67.21
2022-10-07T18:24:47.439Z,67.48
2022-10-07T18:27:15.332Z,67.43
2022-10-07T18:29:42.961Z,67.62
2022-10-07T18:32:10.941Z,67.82
2022-10-07T18:34:38.648Z,67.93
2022-10-07T18:37:06.476Z,68.10
2022-10-07T18:39:34.416Z,68.12
2022-10-07T18:42:04.570Z,68.23
2022-10-07T18:44:33.251Z,68.21
2022-10-07T18:47:01.300Z,68.35
2022-10-07T18:49:29.277Z,68.44
2022-10-07T18:51:56.895Z,68.54
2022-10-07T18:54:24.670Z,68.64
2022-10-07T18:56:52.674Z,68.67
2022-10-07T18:59:20.435Z,68.74
2022-10-07T19:01:50.963Z,68.88
2022-10-07T19:04:19.748Z,69.15
2022-10-07T19:06:47.659Z,69.09
2022-10-07T19:09:18.431Z,69.27
2022-10-07T19:11:46.959Z,69.32
2022-10-07T19:14:15.705Z,69.50
2022-10-07T19:16:51.267Z,69.81
2022-10-07T19:19:22.327Z,69.85
2022-10-07T19:21:54.148Z,69.95
2022-10-07T19:24:42.453Z,70.00
2022-10-07T19:27:10.441Z,70.04
2022-10-07T19:29:38.069Z,70.03
2022-10-07T19:32:08.542Z,70.08
2022-10-07T19:34:37.384Z,70.18
2022-10-07T19:37:05.547Z,70.26
2022-10-07T19:39:33.242Z,70.34
2022-10-07T19:42:01.257Z,70.48
2022-10-07T19:44:28.965Z,70.58
2022-10-07T19:46:56.600Z,70.62
2022-10-07T19:49:24.574Z,70.66
2022-10-07T19:51:53.466Z,70.69
2022-10-07T19:54:21.122Z,70.79
2022-10-07T19:56:49.662Z,70.97
2022-10-07T19:59:17.350Z,70.91
2022-10-07T20:01:47.395Z,70.94
2022-10-07T20:04:21.145Z,70.98
2022-10-07T20:06:48.973Z,71.03
2022-10-07T20:09:18.737Z,71.11
2022-10-07T20:11:47.131Z,71.15
2022-10-07T20:14:16.209Z,71.20
2022-10-07T20:16:44.415Z,71.25
2022-10-07T20:19:18.705Z,71.30
2022-10-07T20:21:47.695Z,71.31
2022-10-07T20:24:16.905Z,71.25
2022-10-07T20:26:45.664Z,71.32
2022-10-07T20:29:25.259Z,71.24
2022-10-07T20:31:54.747Z,71.20
2022-10-07T20:34:24.635Z,71.21
2022-10-07T20:36:54.866Z,71.28
2022-10-07T20:39:41.436Z,71.20
2022-10-07T20:42:22.140Z,71.29
2022-10-07T20:44:51.408Z,71.15
2022-10-07T20:47:22.912Z,71.16
2022-10-07T20:49:51.696Z,71.10
2022-10-07T20:52:24.856Z,71.11
2022-10-07T20:54:54.192Z,71.00
2022-10-07T20:57:27.729Z,70.95
2022-10-07T20:59:55.611Z,70.93
2022-10-07T21:02:24.267Z,70.91
2022-10-07T21:04:52.127Z,70.84
2022-10-07T21:07:19.972Z,70.75
2022-10-07T21:09:47.991Z,70.76
2022-10-07T21:12:18.240Z,70.69
2022-10-07T21:14:48.452Z,70.66
2022-10-07T21:17:16.946Z,70.61
2022-10-07T21:19:44.706Z,70.54
2022-10-07T21:22:12.383Z,70.61
2022-10-07T21:24:40.107Z,70.47
2022-10-07T21:27:07.999Z,70.47
2022-10-07T21:29:40.427Z,70.38
2022-10-07T21:32:11.382Z,70.34
2022-10-07T21:34:39.070Z,70.32
2022-10-07T21:37:06.688Z,70.28
2022-10-07T21:39:35.410Z,70.27
2022-10-07T21:42:03.189Z,70.23
2022-10-07T21:44:33.377Z,70.27
2022-10-07T21:47:01.723Z,70.23
2022-10-07T21:49:29.473Z,70.33
2022-10-07T21:51:57.100Z,70.37
2022-10-07T21:54:25.288Z,70.45
2022-10-07T21:56:52.883Z,70.48
2022-10-07T21:59:20.835Z,70.43
2022-10-07T22:01:48.837Z,70.54
2022-10-07T22:04:18.368Z,70.49
2022-10-07T22:07:05.374Z,70.51
2022-10-07T22:09:33.461Z,70.56
2022-10-07T22:12:01.107Z,70.64
2022-10-07T22:14:28.899Z,70.72
2022-10-07T22:16:57.236Z,70.74
2022-10-07T22:19:25.297Z,70.82
2022-10-07T22:21:53.182Z,70.94
2022-10-07T22:24:21.249Z,71.08
2022-10-07T22:26:51.048Z,71.21
2022-10-07T22:29:20.454Z,71.38
2022-10-07T22:31:48.237Z,71.45
2022-10-07T22:34:34.602Z,71.48
2022-10-07T22:37:02.384Z,71.56
2022-10-07T22:39:30.448Z,71.81
2022-10-07T22:41:58.859Z,71.88
2022-10-07T22:44:28.138Z,71.99
2022-10-07T22:46:56.830Z,72.11
2022-10-07T22:49:29.569Z,72.25
2022-10-07T22:51:59.790Z,72.30
2022-10-07T22:54:28.713Z,72.42
2022-10-07T22:56:56.509Z,72.39
2022-10-07T22:59:24.377Z,72.52
2022-10-07T23:01:53.044Z,72.47
2022-10-07T23:04:21.495Z,72.59
2022-10-07T23:06:49.820Z,72.66
2022-10-07T23:09:19.244Z,72.63
2022-10-07T23:11:47.157Z,72.72
2022-10-07T23:14:14.922Z,72.75
2022-10-07T23:16:44.326Z,72.64
2022-10-07T23:19:12.063Z,72.73
2022-10-07T23:21:39.865Z,72.67
2022-10-07T23:24:08.443Z,72.80
2022-10-07T23:26:36.849Z,72.89
2022-10-07T23:29:05.335Z,72.75
2022-10-07T23:31:33.718Z,72.83
2022-10-07T23:34:01.943Z,72.80
2022-10-07T23:36:30.011Z,72.87
2022-10-07T23:39:00.019Z,72.98
2022-10-07T23:41:29.851Z,73.10
2022-10-07T23:44:00.491Z,73.18
2022-10-07T23:46:29.375Z,73.32
2022-10-07T23:48:57.012Z,73.36
2022-10-07T23:51:27.873Z,73.46
2022-10-07T23:53:56.629Z,73.45
2022-10-07T23:56:24.299Z,73.51
2022-10-07T23:58:52.528Z,73.56
